createdAt,value
2019-02-26T00:00:30.398Z,102941.20
2019-02-26T00:03:02.154Z,102944.98
2019-02-26T00:05:30.667Z,102943.89
2019-02-26T00:08:00.146Z,102940.34
2019-02-26T00:10:31.346Z,102942.27
2019-02-26T00:12:59.202Z,102934.09
2019-02-26T00:15:31.296Z,102937.48
2019-02-26T00:17:57.253Z,102938.28
2019-02-26T00:20:25.429Z,102928.74
2019-02-26T00:22:55.295Z,102925.27
2019-02-26T00:25:23.505Z,102925.89
2019-02-26T00:27:52.435Z,102924.70
2019-02-26T00:30:21.590Z,102921.85
2019-02-26T00:32:50.010Z,102919.91
2019-02-26T00:35:19.101Z,102916.83
2019-02-26T00:37:49.280Z,102912.95
2019-02-26T00:40:20.197Z,102910.66
2019-02-26T00:42:50.229Z,102914.39
2019-02-26T00:45:22.248Z,102902.88
2019-02-26T00:47:47.665Z,102896.36
2019-02-26T00:50:16.666Z,102900.68
2019-02-26T00:52:45.223Z,102903.32
2019-02-26T00:55:13.747Z,102908.11
2019-02-26T00:57:43.017Z,102902.95
2019-02-26T01:00:16.134Z,102894.04
2019-02-26T01:02:44.574Z,102905.96
2019-02-26T01:05:15.712Z,102905.41
2019-02-26T01:07:46.685Z,102894.53
2019-02-26T01:10:16.134Z,102903.28
2019-02-26T01:12:44.259Z,102892.96
2019-02-26T01:15:20.026Z,102899.79
2019-02-26T01:17:48.215Z,102901.84
2019-02-26T01:20:19.619Z,102891.16
2019-02-26T01:22:48.194Z,102889.17
2019-02-26T01:25:18.365Z,102881.86
2019-02-26T01:27:48.322Z,102879.47
2019-02-26T01:30:21.108Z,102885.64
2019-02-26T01:32:46.618Z,102882.03
2019-02-26T01:35:14.783Z,102888.42
2019-02-26T01:37:42.967Z,102889.86
2019-02-26T01:40:16.332Z,102886.21
2019-02-26T01:42:47.051Z,102891.28
2019-02-26T01:45:14.329Z,102898.19
2019-02-26T01:47:44.904Z,102895.24
2019-02-26T01:50:13.989Z,102891.20
2019-02-26T01:52:43.357Z,102892.22
2019-02-26T01:55:12.267Z,102891.28
2019-02-26T01:57:42.542Z,102888.36
2019-02-26T02:00:19.850Z,102883.68
2019-02-26T02:02:48.030Z,102887.16
2019-02-26T02:05:16.210Z,102888.75
2019-02-26T02:07:46.770Z,102887.95
2019-02-26T02:10:15.841Z,102891.92
2019-02-26T02:12:44.510Z,102887.95
2019-02-26T02:15:15.767Z,102885.25
2019-02-26T02:17:44.411Z,102879.95
2019-02-26T02:20:20.771Z,102879.56
2019-02-26T02:22:45.888Z,102882.26
2019-02-26T02:25:15.102Z,102869.90
2019-02-26T02:27:47.588Z,102864.09
2019-02-26T02:30:22.436Z,102859.66
2019-02-26T02:32:48.157Z,102868.19
2019-02-26T02:35:18.964Z,102871.67
2019-02-26T02:37:45.949Z,102867.09
2019-02-26T02:40:14.450Z,102863.28
2019-02-26T02:42:43.733Z,102861.16
2019-02-26T02:45:16.689Z,102863.22
2019-02-26T02:47:43.410Z,102856.82
2019-02-26T02:50:18.062Z,102851.70
2019-02-26T02:52:44.958Z,102848.78
2019-02-26T02:55:16.123Z,102849.59
2019-02-26T02:57:43.043Z,102842.84
2019-02-26T03:00:16.174Z,102834.90
2019-02-26T03:02:46.736Z,102832.92
2019-02-26T03:05:14.762Z,102829.94
2019-02-26T03:07:46.018Z,102827.57
2019-02-26T03:10:14.442Z,102823.45
2019-02-26T03:12:47.003Z,102826.22
2019-02-26T03:15:14.498Z,102823.75
2019-02-26T03:17:42.671Z,102819.66
2019-02-26T03:20:14.918Z,102812.87
2019-02-26T03:22:48.302Z,102805.56
2019-02-26T03:25:17.287Z,102802.73
2019-02-26T03:27:44.922Z,102804.00
2019-02-26T03:30:31.480Z,102800.77
2019-02-26T03:32:58.277Z,102806.72
2019-02-26T03:35:23.263Z,102811.22
2019-02-26T03:37:54.295Z,102812.33
2019-02-26T03:40:23.909Z,102811.83
2019-02-26T03:42:50.851Z,102816.80
2019-02-26T03:45:23.661Z,102816.73
2019-02-26T03:47:48.917Z,102817.75
2019-02-26T03:50:17.150Z,102817.27
2019-02-26T03:52:46.493Z,102808.03
2019-02-26T03:55:18.324Z,102799.03
2019-02-26T03:57:47.579Z,102794.62
2019-02-26T04:00:19.849Z,102791.58
2019-02-26T04:02:51.277Z,102797.94
2019-02-26T04:05:18.555Z,102800.00
2019-02-26T04:07:51.621Z,102789.59
2019-02-26T04:10:16.644Z,102792.30
2019-02-26T04:12:48.239Z,102793.79
2019-02-26T04:15:16.362Z,102784.45
2019-02-26T04:17:44.533Z,102792.09
2019-02-26T04:20:13.798Z,102792.77
2019-02-26T04:22:42.906Z,102792.94
2019-02-26T04:25:15.406Z,102791.74
2019-02-26T04:28:08.639Z,102795.55
2019-02-26T04:30:51.726Z,102803.47
2019-02-26T04:33:56.795Z,102804.02
2019-02-26T04:36:28.724Z,102809.46
2019-02-26T04:39:26.914Z,102806.30
2019-02-26T04:42:15.343Z,102809.78
2019-02-26T04:45:08.668Z,102817.05
2019-02-26T04:48:00.783Z,102826.59
2019-02-26T04:50:32.382Z,102829.89
2019-02-26T04:53:02.127Z,102829.16
2019-02-26T04:55:29.882Z,102824.95
2019-02-26T04:57:59.066Z,102828.53
2019-02-26T05:00:29.912Z,102825.44
2019-02-26T05:02:57.381Z,102833.50
2019-02-26T05:05:27.735Z,102832.86
2019-02-26T05:07:55.463Z,102835.33
2019-02-26T05:10:26.474Z,102836.81
2019-02-26T05:12:56.962Z,102838.02
2019-02-26T05:15:26.415Z,102836.66
2019-02-26T05:17:53.343Z,102833.69
2019-02-26T05:20:21.499Z,102828.52
2019-02-26T05:22:54.539Z,102825.36
2019-02-26T05:25:22.090Z,102826.31
2019-02-26T05:27:50.927Z,102835.94
2019-02-26T05:30:22.117Z,102835.02
2019-02-26T05:32:51.113Z,102841.02
2019-02-26T05:35:20.888Z,102840.45
2019-02-26T05:37:48.916Z,102843.84
2019-02-26T05:40:19.769Z,102840.25
2019-02-26T05:42:46.983Z,102840.77
2019-02-26T05:45:15.143Z,102833.14
2019-02-26T05:47:45.439Z,102829.12
2019-02-26T05:50:16.623Z,102833.56
2019-02-26T05:52:43.362Z,102836.73
2019-02-26T05:55:13.925Z,102838.41
2019-02-26T05:57:41.438Z,102849.47
2019-02-26T06:00:13.431Z,102857.52
2019-02-26T06:02:44.297Z,102856.35
2019-02-26T06:05:11.921Z,102859.12
2019-02-26T06:07:40.334Z,102863.61
2019-02-26T06:10:08.502Z,102857.83
2019-02-26T06:12:40.326Z,102860.20
2019-02-26T06:15:08.047Z,102853.61
2019-02-26T06:17:40.635Z,102843.09
2019-02-26T06:20:18.773Z,102848.66
2019-02-26T06:22:46.950Z,102859.14
2019-02-26T06:25:20.570Z,102862.78
2019-02-26T06:27:45.034Z,102864.74
2019-02-26T06:30:14.557Z,102859.88
2019-02-26T06:32:44.643Z,102862.00
2019-02-26T06:35:16.439Z,102871.48
2019-02-26T06:37:45.516Z,102857.95
2019-02-26T06:40:16.086Z,102856.13
2019-02-26T06:42:44.265Z,102856.80
2019-02-26T06:45:16.279Z,102859.11
2019-02-26T06:47:45.784Z,102860.54
2019-02-26T06:50:15.850Z,102861.67
2019-02-26T06:52:45.369Z,102858.83
2019-02-26T06:55:13.847Z,102856.77
2019-02-26T06:57:44.203Z,102854.08
2019-02-26T07:00:21.017Z,102856.46
2019-02-26T07:02:48.106Z,102856.33
2019-02-26T07:05:16.273Z,102853.23
2019-02-26T07:07:44.457Z,102858.36
2019-02-26T07:10:18.293Z,102846.15
2019-02-26T07:12:45.517Z,102850.06
2019-02-26T07:15:15.604Z,102853.13
2019-02-26T07:17:45.934Z,102859.22
2019-02-26T07:20:14.019Z,102855.32
2019-02-26T07:22:44.086Z,102848.52
2019-02-26T07:25:15.259Z,102846.67
2019-02-26T07:27:41.991Z,102849.64
2019-02-26T07:30:11.994Z,102851.38
2019-02-26T07:32:40.778Z,102854.02
2019-02-26T07:35:13.108Z,102859.95
2019-02-26T07:37:40.401Z,102857.75
2019-02-26T07:40:15.248Z,102851.45
2019-02-26T07:42:43.849Z,102840.67
2019-02-26T07:45:15.251Z,102838.85
2019-02-26T07:47:45.115Z,102843.86
2019-02-26T07:50:14.644Z,102831.81
2019-02-26T07:52:43.286Z,102830.21
2019-02-26T07:55:12.796Z,102822.20
2019-02-26T07:57:43.629Z,102804.34
2019-02-26T08:00:20.344Z,102811.06
2019-02-26T08:02:48.537Z,102815.25
2019-02-26T08:05:18.753Z,102817.56
2019-02-26T08:07:48.435Z,102821.28
2019-02-26T08:10:19.495Z,102818.25
2019-02-26T08:12:47.707Z,102816.73
2019-02-26T08:15:16.333Z,102819.11
2019-02-26T08:17:47.843Z,102807.59
2019-02-26T08:20:15.067Z,102808.80
2019-02-26T08:22:43.433Z,102807.77
2019-02-26T08:25:13.157Z,102800.41
2019-02-26T08:27:41.346Z,102802.38
2019-02-26T08:30:14.489Z,102805.09
2019-02-26T08:32:42.291Z,102807.94
2019-02-26T08:35:11.307Z,102807.42
2019-02-26T08:37:39.497Z,102813.03
2019-02-26T08:40:10.533Z,102814.02
2019-02-26T08:42:38.694Z,102812.28
2019-02-26T08:45:17.581Z,102811.86
2019-02-26T08:47:44.962Z,102811.63
2019-02-26T08:50:14.821Z,102805.09
2019-02-26T08:52:44.886Z,102801.16
2019-02-26T08:55:16.172Z,102797.33
2019-02-26T08:57:44.102Z,102790.68
2019-02-26T09:00:21.978Z,102787.52
2019-02-26T09:02:53.682Z,102788.53
2019-02-26T09:05:20.165Z,102792.73
2019-02-26T09:07:50.638Z,102792.84
2019-02-26T09:10:20.630Z,102788.09
2019-02-26T09:12:48.964Z,102787.00
2019-02-26T09:15:19.637Z,102789.19
2019-02-26T09:17:47.848Z,102786.82
2019-02-26T09:20:18.236Z,102781.75
2019-02-26T09:22:50.275Z,102785.66
2019-02-26T09:25:16.474Z,102781.00
2019-02-26T09:27:44.662Z,102779.22
2019-02-26T09:30:17.854Z,102778.47
2019-02-26T09:32:46.046Z,102773.55
2019-02-26T09:35:16.893Z,102776.25
2019-02-26T09:37:47.871Z,102780.45
2019-02-26T09:40:23.026Z,102773.45
2019-02-26T09:42:53.766Z,102775.73
2019-02-26T09:45:23.678Z,102774.12
2019-02-26T09:47:54.360Z,102776.84
2019-02-26T09:50:22.623Z,102779.92
2019-02-26T09:52:52.849Z,102773.27
2019-02-26T09:55:20.834Z,102775.89
2019-02-26T09:57:49.007Z,102771.13
2019-02-26T10:00:26.938Z,102777.42
2019-02-26T10:02:53.702Z,102777.78
2019-02-26T10:05:22.675Z,102773.39
2019-02-26T10:07:53.877Z,102770.25
2019-02-26T10:10:22.008Z,102769.50
2019-02-26T10:12:51.783Z,102777.68
2019-02-26T10:15:20.073Z,102773.84
2019-02-26T10:17:48.322Z,102777.05
2019-02-26T10:20:31.014Z,102777.98
2019-02-26T10:22:58.652Z,102779.27
2019-02-26T10:25:28.660Z,102779.33
2019-02-26T10:27:56.266Z,102781.03
2019-02-26T10:30:24.442Z,102775.67
2019-02-26T10:32:52.630Z,102778.31
2019-02-26T10:35:32.308Z,102774.94
2019-02-26T10:37:53.926Z,102774.59
2019-02-26T10:40:22.642Z,102780.61
2019-02-26T10:42:50.918Z,102783.35
2019-02-26T10:45:21.946Z,102776.75
2019-02-26T10:47:51.264Z,102782.00
2019-02-26T10:50:25.578Z,102775.42
2019-02-26T10:52:57.790Z,102769.13
2019-02-26T10:55:31.489Z,102768.89
2019-02-26T10:57:55.366Z,102762.45
2019-02-26T11:00:34.122Z,102751.52
2019-02-26T11:03:00.812Z,102756.28
2019-02-26T11:05:29.000Z,102754.01
2019-02-26T11:08:01.226Z,102754.00
2019-02-26T11:10:27.095Z,102750.94
2019-02-26T11:12:58.605Z,102735.06
2019-02-26T11:15:26.927Z,102733.59
2019-02-26T11:17:55.838Z,102733.88
2019-02-26T11:20:27.542Z,102751.11
2019-02-26T11:22:54.171Z,102752.47
2019-02-26T11:25:24.394Z,102729.16
2019-02-26T11:27:52.605Z,102736.25
2019-02-26T11:30:25.877Z,102742.90
2019-02-26T11:32:56.011Z,102742.44
2019-02-26T11:35:24.627Z,102752.91
2019-02-26T11:37:55.391Z,102738.79
2019-02-26T11:40:25.282Z,102729.33
2019-02-26T11:42:54.435Z,102734.16
2019-02-26T11:45:23.754Z,102734.50
2019-02-26T11:47:52.015Z,102726.64
2019-02-26T11:50:27.136Z,102725.61
2019-02-26T11:52:54.799Z,102717.36
2019-02-26T11:55:23.537Z,102726.73
2019-02-26T11:57:51.850Z,102720.05
2019-02-26T12:00:31.307Z,102724.48
2019-02-26T12:02:56.777Z,102723.34
2019-02-26T12:05:31.461Z,102709.05
2019-02-26T12:07:56.426Z,102713.53
2019-02-26T12:10:26.983Z,102701.70
2019-02-26T12:12:56.819Z,102699.23
2019-02-26T12:15:27.172Z,102704.63
2019-02-26T12:17:56.485Z,102714.33
2019-02-26T12:20:25.169Z,102697.55
2019-02-26T12:22:55.420Z,102693.58
2019-02-26T12:25:23.594Z,102694.59
2019-02-26T12:27:51.764Z,102692.83
2019-02-26T12:30:23.870Z,102695.20
2019-02-26T12:32:53.070Z,102685.00
2019-02-26T12:35:22.026Z,102673.09
2019-02-26T12:37:52.361Z,102684.38
2019-02-26T12:40:23.338Z,102668.42
2019-02-26T12:42:50.033Z,102657.80
2019-02-26T12:45:19.878Z,102653.19
2019-02-26T12:47:49.345Z,102667.05
2019-02-26T12:50:19.402Z,102661.20
2019-02-26T12:52:50.673Z,102658.47
2019-02-26T12:55:17.572Z,102648.92
2019-02-26T12:57:47.251Z,102629.92
2019-02-26T13:00:23.040Z,102637.91
2019-02-26T13:02:52.139Z,102638.79
2019-02-26T13:05:22.938Z,102639.03
2019-02-26T13:07:50.085Z,102640.03
2019-02-26T13:10:23.153Z,102633.15
2019-02-26T13:12:54.992Z,102635.40
2019-02-26T13:15:22.046Z,102633.35
2019-02-26T13:17:54.259Z,102630.04
2019-02-26T13:20:25.162Z,102626.48
2019-02-26T13:22:56.411Z,102623.86
2019-02-26T13:25:26.878Z,102620.16
2019-02-26T13:27:53.201Z,102620.23
2019-02-26T13:30:29.218Z,102622.87
2019-02-26T13:33:12.732Z,102618.72
2019-02-26T13:35:27.316Z,102611.16
2019-02-26T13:37:58.393Z,102610.07
2019-02-26T13:40:26.942Z,102602.72
2019-02-26T13:45:26.677Z,102596.02
2019-02-26T13:48:00.959Z,102593.02
2019-02-26T13:50:35.074Z,102589.70
2019-02-26T13:53:03.245Z,102587.58
2019-02-26T13:55:31.429Z,102578.17
2019-02-26T13:57:59.601Z,102569.93
2019-02-26T14:00:27.861Z,102579.63
2019-02-26T14:02:56.122Z,102566.79
2019-02-26T14:05:24.372Z,102562.50
2019-02-26T14:07:52.615Z,102562.44
2019-02-26T14:10:24.647Z,102554.57
2019-02-26T14:12:52.810Z,102552.59
2019-02-26T14:15:30.950Z,102554.52
2019-02-26T14:17:59.155Z,102545.36
2019-02-26T14:20:27.327Z,102550.41
2019-02-26T14:22:55.487Z,102550.06
2019-02-26T14:25:23.679Z,102545.81
2019-02-26T14:27:51.847Z,102538.84
2019-02-26T14:30:21.533Z,102520.51
2019-02-26T14:32:50.010Z,102522.02
2019-02-26T14:35:18.283Z,102512.08
2019-02-26T14:37:46.479Z,102506.80
2019-02-26T14:40:15.795Z,102506.51
2019-02-26T14:42:43.981Z,102516.86
2019-02-26T14:45:17.382Z,102509.30
2019-02-26T14:47:45.546Z,102515.08
2019-02-26T14:50:19.731Z,102512.13
2019-02-26T14:52:47.902Z,102516.64
2019-02-26T14:55:16.553Z,102505.72
2019-02-26T14:57:45.014Z,102509.17
2019-02-26T15:00:24.946Z,102508.03
2019-02-26T15:02:53.130Z,102501.98
2019-02-26T15:05:21.373Z,102497.70
2019-02-26T15:07:49.561Z,102496.12
2019-02-26T15:10:17.999Z,102498.50
2019-02-26T15:12:46.194Z,102495.81
2019-02-26T15:15:16.510Z,102491.24
2019-02-26T15:17:44.759Z,102488.81
2019-02-26T15:20:21.283Z,102481.44
2019-02-26T15:22:49.470Z,102485.34
2019-02-26T15:25:26.350Z,102482.69
2019-02-26T15:28:04.231Z,102472.20
2019-02-26T15:30:24.785Z,102476.48
2019-02-26T15:32:52.965Z,102476.78
2019-02-26T15:35:21.206Z,102476.22
2019-02-26T15:37:49.403Z,102478.13
2019-02-26T15:40:18.714Z,102472.66
2019-02-26T15:42:46.911Z,102470.33
2019-02-26T15:45:23.994Z,102472.34
2019-02-26T15:47:52.472Z,102470.72
2019-02-26T15:50:21.299Z,102470.12
2019-02-26T15:52:52.723Z,102463.77
2019-02-26T15:55:25.950Z,102465.69
2019-02-26T15:57:55.069Z,102469.39
2019-02-26T16:00:24.551Z,102465.52
2019-02-26T16:02:53.667Z,102465.11
2019-02-26T16:05:30.851Z,102464.41
2019-02-26T16:07:59.025Z,102460.23
2019-02-26T16:10:27.501Z,102459.28
2019-02-26T16:12:57.320Z,102460.09
2019-02-26T16:15:25.514Z,102459.02
2019-02-26T16:17:58.183Z,102457.41
2019-02-26T16:20:23.701Z,102455.66
2019-02-26T16:22:51.879Z,102447.42
2019-02-26T16:25:20.063Z,102457.16
2019-02-26T16:27:48.240Z,102460.76
2019-02-26T16:30:19.027Z,102458.59
2019-02-26T16:32:48.870Z,102460.41
2019-02-26T16:35:17.523Z,102463.48
2019-02-26T16:37:45.765Z,102458.28
2019-02-26T16:40:16.058Z,102458.31
2019-02-26T16:42:45.029Z,102458.52
2019-02-26T16:45:21.439Z,102453.34
2019-02-26T16:47:49.621Z,102456.29
2019-02-26T16:50:22.495Z,102452.91
2019-02-26T16:52:50.839Z,102456.33
2019-02-26T16:55:19.186Z,102451.38
2019-02-26T16:57:47.650Z,102453.17
2019-02-26T17:00:26.729Z,102454.14
2019-02-26T17:02:54.918Z,102458.52
2019-02-26T17:05:23.122Z,102464.42
2019-02-26T17:07:51.301Z,102460.53
2019-02-26T17:10:20.738Z,102466.90
2019-02-26T17:12:50.574Z,102470.84
2019-02-26T17:15:26.894Z,102474.41
2019-02-26T17:17:54.214Z,102473.64
2019-02-26T17:20:23.223Z,102482.48
2019-02-26T17:22:51.578Z,102482.98
2019-02-26T17:25:19.746Z,102484.05
2019-02-26T17:27:47.920Z,102484.63
2019-02-26T17:30:17.350Z,102494.06
2019-02-26T17:32:45.613Z,102489.39
2019-02-26T17:35:14.727Z,102487.72
2019-02-26T17:37:42.989Z,102489.54
2019-02-26T17:40:16.622Z,102492.62
2019-02-26T17:42:44.813Z,102496.52
2019-02-26T17:45:18.817Z,102486.88
2019-02-26T17:47:47.010Z,102494.01
2019-02-26T17:50:18.090Z,102493.11
2019-02-26T17:52:46.286Z,102489.21
2019-02-26T17:55:14.449Z,102493.13
2019-02-26T17:57:43.043Z,102490.79
2019-02-26T18:00:21.289Z,102499.34
2019-02-26T18:02:49.461Z,102497.91
2019-02-26T18:05:17.629Z,102501.72
2019-02-26T18:07:46.079Z,102506.00
2019-02-26T18:10:16.484Z,102505.80
2019-02-26T18:12:44.670Z,102502.73
2019-02-26T18:15:16.726Z,102498.60
2019-02-26T18:17:43.411Z,102500.09
2019-02-26T18:20:17.078Z,102502.33
2019-02-26T18:22:45.283Z,102510.48
2019-02-26T18:25:16.461Z,102500.87
2019-02-26T18:27:46.580Z,102499.92
2019-02-26T18:30:17.300Z,102500.17
2019-02-26T18:32:50.280Z,102498.95
2019-02-26T18:35:15.601Z,102500.73
2019-02-26T18:37:46.534Z,102497.19
2019-02-26T18:40:17.471Z,102497.31
2019-02-26T18:42:45.812Z,102503.22
2019-02-26T18:45:28.858Z,102501.66
2019-02-26T18:47:57.441Z,102502.84
2019-02-26T18:50:28.597Z,102503.22
2019-02-26T18:52:58.059Z,102498.09
2019-02-26T18:55:28.337Z,102502.84
2019-02-26T18:57:56.086Z,102500.41
2019-02-26T19:00:34.490Z,102503.17
2019-02-26T19:03:02.677Z,102501.58
2019-02-26T19:05:31.338Z,102504.66
2019-02-26T19:07:59.502Z,102501.91
2019-02-26T19:10:27.698Z,102500.40
2019-02-26T19:12:55.883Z,102502.52
2019-02-26T19:15:26.350Z,102492.69
2019-02-26T19:17:56.793Z,102491.58
2019-02-26T19:20:30.180Z,102492.70
2019-02-26T19:22:58.778Z,102490.52
2019-02-26T19:25:27.620Z,102493.36
2019-02-26T19:27:55.809Z,102494.73
2019-02-26T19:30:24.288Z,102495.92
2019-02-26T19:32:52.474Z,102494.73
2019-02-26T19:35:20.735Z,102494.51
2019-02-26T19:37:57.477Z,102495.41
2019-02-26T19:40:38.791Z,102490.45
2019-02-26T19:43:04.420Z,102494.27
2019-02-26T19:45:33.043Z,102498.19
2019-02-26T19:48:01.335Z,102496.08
2019-02-26T19:50:30.530Z,102493.95
2019-02-26T19:53:02.146Z,102491.73
2019-02-26T19:55:34.779Z,102490.70
2019-02-26T19:58:06.401Z,102488.48
2019-02-26T20:00:32.979Z,102488.92
2019-02-26T20:03:04.900Z,102486.46
2019-02-26T20:05:31.092Z,102486.12
2019-02-26T20:07:59.291Z,102488.55
2019-02-26T20:10:27.462Z,102488.89
2019-02-26T20:12:55.658Z,102489.86
2019-02-26T20:15:24.171Z,102485.98
2019-02-26T20:17:52.365Z,102486.45
2019-02-26T20:20:21.693Z,102487.44
2019-02-26T20:22:49.871Z,102482.47
2019-02-26T20:25:19.613Z,102480.77
2019-02-26T20:27:47.858Z,102482.38
2019-02-26T20:30:18.841Z,102475.45
2019-02-26T20:32:47.173Z,102488.69
2019-02-26T20:35:16.056Z,102491.37
2019-02-26T20:37:44.793Z,102482.52
2019-02-26T20:40:17.561Z,102482.91
2019-02-26T20:42:45.827Z,102480.38
2019-02-26T20:45:18.175Z,102478.28
2019-02-26T20:47:46.412Z,102484.73
2019-02-26T20:50:15.129Z,102489.88
2019-02-26T20:52:43.289Z,102489.08
2019-02-26T20:55:14.199Z,102491.73
2019-02-26T20:57:42.676Z,102488.60
2019-02-26T21:00:18.610Z,102482.79
2019-02-26T21:02:47.124Z,102484.95
2019-02-26T21:05:15.485Z,102485.36
2019-02-26T21:07:44.072Z,102485.05
2019-02-26T21:10:18.349Z,102482.59
2019-02-26T21:12:46.663Z,102484.72
2019-02-26T21:15:16.994Z,102483.84
2019-02-26T21:17:45.177Z,102485.27
2019-02-26T21:20:14.120Z,102486.91
2019-02-26T21:22:42.627Z,102487.23
2019-02-26T21:25:15.238Z,102486.91
2019-02-26T21:27:43.425Z,102489.45
2019-02-26T21:30:17.485Z,102485.55
2019-02-26T21:32:45.679Z,102488.19
2019-02-26T21:35:14.211Z,102479.41
2019-02-26T21:37:42.410Z,102474.46
2019-02-26T21:40:15.855Z,102480.77
2019-02-26T21:42:42.781Z,102477.82
2019-02-26T21:45:15.987Z,102478.86
2019-02-26T21:47:44.028Z,102475.71
2019-02-26T21:50:16.687Z,102475.30
2019-02-26T21:52:59.063Z,102479.66
2019-02-26T21:55:17.851Z,102478.02
2019-02-26T21:57:46.046Z,102477.13
2019-02-26T22:00:17.381Z,102475.89
2019-02-26T22:02:45.578Z,102474.92
2019-02-26T22:05:13.818Z,102481.40
2019-02-26T22:07:41.995Z,102485.40
2019-02-26T22:10:17.442Z,102480.56
2019-02-26T22:12:45.615Z,102483.79
2019-02-26T22:15:17.011Z,102479.34
2019-02-26T22:17:45.181Z,102475.17
2019-02-26T22:20:23.323Z,102477.09
2019-02-26T22:22:44.958Z,102472.70
2019-02-26T22:25:17.101Z,102470.17
2019-02-26T22:27:44.067Z,102471.39
2019-02-26T22:30:21.431Z,102471.18
2019-02-26T22:32:46.655Z,102466.38
2019-02-26T22:35:14.839Z,102469.56
2019-02-26T22:37:43.291Z,102463.44
2019-02-26T22:40:13.001Z,102468.23
2019-02-26T22:42:41.951Z,102464.67
2019-02-26T22:45:14.619Z,102462.79
2019-02-26T22:47:44.133Z,102468.45
2019-02-26T22:50:17.655Z,102468.01
2019-02-26T22:52:45.840Z,102468.20
2019-02-26T22:55:17.165Z,102467.63
2019-02-26T22:57:46.035Z,102475.08
2019-02-26T23:00:49.626Z,102473.52
2019-02-26T23:03:18.500Z,102472.11
2019-02-26T23:05:47.009Z,102466.80
2019-02-26T23:08:15.265Z,102471.89
2019-02-26T23:10:43.440Z,102464.50
2019-02-26T23:13:11.678Z,102465.39
2019-02-26T23:15:45.144Z,102461.97
2019-02-26T23:18:10.317Z,102460.93
2019-02-26T23:20:42.534Z,102461.45
2019-02-26T23:23:08.465Z,102468.64
2019-02-26T23:25:36.706Z,102462.28
2019-02-26T23:28:05.371Z,102455.38
2019-02-26T23:30:33.819Z,102461.85
2019-02-26T23:33:02.063Z,102461.58
2019-02-26T23:35:30.251Z,102458.00
2019-02-26T23:37:58.590Z,102450.64
2019-02-26T23:40:27.496Z,102448.69
2019-02-26T23:42:56.636Z,102450.60
2019-02-26T23:45:24.925Z,102454.53
2019-02-26T23:47:53.059Z,102455.37
2019-02-26T23:50:21.574Z,102458.41
2019-02-26T23:52:49.758Z,102456.61
2019-02-26T23:55:17.946Z,102454.95
2019-02-26T23:57:46.117Z,102452.09
